createdAt,value
2022-11-15T11:43:24.682Z,4.82
2022-11-15T11:46:14.429Z,3.17
2022-11-15T11:48:54.176Z,3.92
2022-11-15T11:51:30.005Z,3.90
2022-11-15T11:54:04.710Z,4.53
2022-11-15T11:56:37.345Z,4.43
2022-11-15T11:59:13.911Z,4.47
2022-11-15T12:01:44.211Z,6.25
2022-11-15T12:04:15.067Z,3.05
2022-11-15T12:07:09.548Z,5.55
2022-11-15T12:09:58.982Z,3.15
2022-11-15T12:15:22.323Z,3.80
2022-11-15T12:17:49.578Z,4.93
2022-11-15T12:20:22.652Z,5.20
2022-11-15T12:22:58.653Z,3.70
2022-11-15T12:25:40.498Z,3.00
2022-11-15T12:28:16.341Z,4.20
2022-11-15T12:30:57.156Z,4.22
2022-11-15T12:33:31.460Z,3.88
2022-11-15T12:36:01.067Z,3.20
2022-11-15T12:38:57.143Z,6.15
2022-11-15T12:41:35.531Z,4.90
2022-11-15T12:44:03.583Z,4.72
2022-11-15T12:46:30.224Z,3.13
2022-11-15T12:49:01.557Z,2.88
2022-11-15T12:51:43.620Z,4.10
2022-11-15T12:54:25.356Z,2.78
2022-11-15T12:57:18.188Z,3.28
2022-11-15T13:00:05.295Z,2.83
2022-11-15T13:02:36.051Z,5.93
2022-11-15T13:05:14.742Z,3.05
2022-11-15T13:07:41.446Z,5.80
2022-11-15T13:10:11.197Z,4.30
2022-11-15T13:12:40.301Z,4.18
2022-11-15T13:15:12.600Z,3.25
2022-11-15T13:17:45.248Z,4.30
2022-11-15T13:20:11.775Z,2.22
2022-11-15T13:22:52.004Z,3.28
2022-11-15T13:25:37.044Z,6.38
2022-11-15T13:28:15.564Z,4.32
2022-11-15T13:30:47.945Z,4.23
2022-11-15T13:33:23.934Z,3.38
2022-11-15T13:35:54.011Z,3.58
2022-11-15T13:38:31.032Z,5.30
2022-11-15T13:40:59.557Z,3.67
2022-11-15T13:43:35.107Z,3.25
2022-11-15T13:46:10.788Z,4.47
2022-11-15T13:48:38.022Z,7.13
2022-11-15T13:51:09.682Z,4.20
2022-11-15T13:53:41.746Z,4.72
2022-11-15T13:56:09.356Z,4.45
2022-11-15T13:58:40.488Z,5.07
2022-11-15T14:01:08.010Z,5.00
2022-11-15T14:03:42.327Z,5.13
2022-11-15T14:06:16.060Z,7.53
2022-11-15T14:08:59.106Z,6.80
2022-11-15T14:11:26.594Z,4.35
2022-11-15T14:14:13.560Z,4.18
2022-11-15T14:16:43.756Z,4.95
2022-11-15T14:19:30.280Z,3.90
2022-11-15T14:22:30.003Z,4.75
2022-11-15T14:25:06.402Z,3.90
2022-11-15T14:27:33.773Z,5.47
2022-11-15T14:30:01.005Z,4.45
2022-11-15T14:32:42.104Z,6.65
2022-11-15T14:35:26.997Z,7.55
2022-11-15T14:37:53.871Z,6.07
2022-11-15T14:40:22.735Z,7.60
2022-11-15T14:42:50.577Z,6.78
2022-11-15T14:45:20.217Z,9.52
2022-11-15T14:47:46.939Z,9.15
2022-11-15T14:50:16.149Z,5.43
2022-11-15T14:52:43.733Z,6.85
2022-11-15T14:55:24.913Z,12.38
2022-11-15T14:57:53.402Z,7.25
2022-11-15T15:00:20.487Z,5.47
2022-11-15T15:02:48.772Z,5.95
2022-11-15T15:05:21.746Z,7.03
2022-11-15T15:07:49.025Z,9.45
2022-11-15T15:10:39.039Z,6.97
2022-11-15T15:13:05.215Z,6.53
2022-11-15T15:15:37.124Z,5.70
2022-11-15T15:18:05.852Z,7.22
2022-11-15T15:20:33.696Z,6.00
2022-11-15T15:23:00.301Z,8.98
2022-11-15T15:25:33.757Z,8.90
2022-11-15T15:28:00.846Z,7.78
2022-11-15T15:30:29.453Z,10.98
2022-11-15T15:32:56.409Z,6.83
2022-11-15T15:35:23.147Z,11.18
2022-11-15T15:37:51.022Z,13.07
2022-11-15T15:40:21.050Z,9.02
2022-11-15T15:42:48.846Z,17.13
2022-11-15T15:45:16.516Z,9.70
2022-11-15T15:47:44.008Z,10.25
2022-11-15T15:50:33.243Z,14.82
2022-11-15T15:53:02.352Z,13.38
2022-11-15T15:55:29.730Z,14.80
2022-11-15T15:57:56.401Z,10.27
2022-11-15T16:00:25.687Z,16.52
2022-11-15T16:02:53.718Z,10.00
2022-11-15T16:05:21.112Z,13.98
2022-11-15T16:07:48.537Z,10.25
2022-11-15T16:10:35.744Z,13.02
2022-11-15T16:13:02.393Z,17.55
2022-11-15T16:15:32.114Z,13.95
2022-11-15T16:18:00.790Z,16.15
2022-11-15T16:20:38.339Z,16.40
2022-11-15T16:23:13.628Z,14.00
2022-11-15T16:25:47.984Z,13.82
2022-11-15T16:28:24.695Z,16.05
2022-11-15T16:31:05.819Z,12.88
2022-11-15T16:33:33.206Z,16.02
2022-11-15T16:36:00.178Z,13.68
2022-11-15T16:38:26.848Z,14.98
2022-11-15T16:40:53.464Z,11.98
2022-11-15T16:43:20.195Z,15.02
2022-11-15T16:45:46.947Z,15.68
2022-11-15T16:48:29.216Z,14.00
2022-11-15T16:50:57.664Z,14.27
2022-11-15T16:53:25.325Z,14.40
2022-11-15T16:55:51.958Z,13.00
2022-11-15T16:58:18.657Z,12.98
2022-11-15T17:00:45.323Z,10.77
2022-11-15T17:03:12.170Z,14.30
2022-11-15T17:05:38.863Z,14.23
2022-11-15T17:08:06.549Z,13.27
2022-11-15T17:10:33.165Z,11.55
2022-11-15T17:12:59.914Z,13.57
2022-11-15T17:15:26.537Z,11.43
2022-11-15T17:17:54.625Z,12.13
2022-11-15T17:20:24.645Z,14.15
2022-11-15T17:22:52.728Z,12.93
2022-11-15T17:25:19.760Z,14.90
2022-11-15T17:27:46.648Z,14.38
2022-11-15T17:30:15.576Z,12.00
2022-11-15T17:32:43.576Z,12.05
2022-11-15T17:35:15.557Z,15.32
2022-11-15T17:37:43.075Z,14.02
2022-11-15T17:40:10.470Z,16.60
2022-11-15T17:42:37.464Z,16.63
2022-11-15T17:45:09.711Z,13.80
2022-11-15T17:47:37.394Z,22.00
2022-11-15T17:50:04.650Z,41.83
2022-11-15T17:52:31.425Z,24.02
2022-11-15T17:54:58.115Z,32.03
2022-11-15T17:57:24.747Z,29.15
2022-11-15T17:59:51.335Z,32.38
2022-11-15T18:02:18.082Z,31.77
2022-11-15T18:04:45.300Z,26.75
2022-11-15T18:07:13.996Z,25.02
2022-11-15T18:09:43.952Z,37.40
2022-11-15T18:12:12.085Z,27.48
2022-11-15T18:14:39.349Z,27.67
2022-11-15T18:17:06.514Z,25.05
2022-11-15T18:19:33.708Z,19.52
2022-11-15T18:22:01.520Z,19.70
2022-11-15T18:24:31.256Z,22.45
2022-11-15T18:26:59.366Z,20.08
2022-11-15T18:29:26.530Z,22.60
2022-11-15T18:31:56.997Z,23.90
2022-11-15T18:34:25.485Z,23.73
2022-11-15T18:36:52.928Z,20.67
2022-11-15T18:39:20.281Z,17.58
2022-11-15T18:41:48.057Z,18.70
2022-11-15T18:44:15.836Z,22.17
2022-11-15T18:46:45.086Z,21.17
2022-11-15T18:49:13.734Z,21.70
2022-11-15T18:51:44.238Z,24.53
2022-11-15T18:54:13.065Z,23.08
2022-11-15T18:56:40.648Z,22.08
2022-11-15T18:59:08.772Z,20.50
2022-11-15T19:01:40.572Z,18.73
2022-11-15T19:04:13.258Z,19.23
2022-11-15T19:06:42.355Z,18.40
2022-11-15T19:09:10.749Z,21.95
2022-11-15T19:11:39.825Z,19.15
2022-11-15T19:14:08.770Z,20.83
2022-11-15T19:16:38.725Z,17.98
2022-11-15T19:19:08.160Z,17.73
2022-11-15T19:24:01.825Z,15.52
2022-11-15T19:26:29.230Z,16.15
2022-11-15T19:29:01.384Z,20.85
2022-11-15T19:31:30.009Z,26.90
2022-11-15T19:33:59.661Z,26.93
2022-11-15T19:36:34.515Z,32.83
2022-11-15T19:39:08.553Z,29.75
2022-11-15T19:41:37.932Z,29.08
2022-11-15T19:44:05.955Z,30.17
2022-11-15T19:46:32.761Z,23.08
2022-11-15T19:48:59.483Z,26.33
2022-11-15T19:51:28.279Z,25.83
2022-11-15T19:53:57.033Z,24.50
2022-11-15T19:56:24.086Z,24.55
2022-11-15T19:58:53.066Z,21.52
2022-11-15T20:01:22.694Z,20.13
2022-11-15T20:03:51.477Z,19.58
2022-11-15T20:06:20.106Z,18.00
2022-11-15T20:08:48.075Z,24.30
2022-11-15T20:11:15.930Z,19.80
2022-11-15T20:13:43.384Z,20.17
2022-11-15T20:16:17.062Z,19.33
2022-11-15T20:18:44.141Z,20.45
2022-11-15T20:21:10.778Z,19.52
2022-11-15T20:23:37.507Z,18.73
2022-11-15T20:26:04.227Z,18.27
2022-11-15T20:28:31.199Z,22.83
2022-11-15T20:31:00.550Z,21.23
2022-11-15T20:33:28.054Z,23.42
2022-11-15T20:35:55.152Z,20.75
2022-11-15T20:38:21.960Z,22.35
2022-11-15T20:40:49.978Z,24.20
2022-11-15T20:43:18.650Z,25.80
